createdAt,value
2017-10-30T00:01:43.032Z,81.28
2017-10-30T00:04:10.504Z,80.71
2017-10-30T00:06:37.952Z,81.03
2017-10-30T00:09:05.522Z,80.63
2017-10-30T00:11:32.976Z,81.30
2017-10-30T00:14:00.461Z,80.65
2017-10-30T00:16:28.002Z,81.48
2017-10-30T00:18:55.554Z,80.63
2017-10-30T00:21:23.062Z,80.55
2017-10-30T00:23:50.537Z,80.24
2017-10-30T00:26:18.020Z,79.71
2017-10-30T00:28:45.492Z,79.44
2017-10-30T00:31:12.953Z,79.30
2017-10-30T00:33:40.432Z,78.94
2017-10-30T00:36:07.891Z,78.90
2017-10-30T00:38:36.273Z,79.72
2017-10-30T00:41:03.795Z,79.76
2017-10-30T00:43:31.351Z,80.18
2017-10-30T00:45:58.899Z,80.10
2017-10-30T00:48:26.356Z,79.90
2017-10-30T00:50:53.839Z,80.05
2017-10-30T00:53:21.298Z,80.27
2017-10-30T00:55:48.825Z,80.83
2017-10-30T00:58:16.283Z,81.58
2017-10-30T01:00:43.840Z,81.75
2017-10-30T01:03:11.297Z,81.86
2017-10-30T01:05:38.865Z,81.09
2017-10-30T01:08:06.313Z,81.03
2017-10-30T01:10:33.782Z,81.52
2017-10-30T01:13:01.330Z,79.50
2017-10-30T01:15:28.899Z,80.31
2017-10-30T01:17:56.362Z,81.24
2017-10-30T01:20:23.857Z,81.39
2017-10-30T01:22:51.322Z,81.60
2017-10-30T01:25:18.776Z,81.85
2017-10-30T01:27:46.307Z,82.62
2017-10-30T01:30:13.818Z,82.54
2017-10-30T01:32:41.302Z,82.69
2017-10-30T01:35:08.814Z,82.40
2017-10-30T01:37:36.284Z,82.62
2017-10-30T01:40:03.730Z,81.75
2017-10-30T01:42:31.215Z,82.70
2017-10-30T01:44:58.672Z,83.34
2017-10-30T01:47:26.182Z,83.59
2017-10-30T01:49:53.609Z,84.27
2017-10-30T01:52:21.126Z,84.23
2017-10-30T01:54:48.579Z,84.31
2017-10-30T01:57:16.142Z,84.51
2017-10-30T01:59:43.578Z,84.24
2017-10-30T02:02:11.169Z,84.65
2017-10-30T02:04:38.603Z,84.94
2017-10-30T02:07:06.074Z,84.81
2017-10-30T02:09:33.545Z,85.11
2017-10-30T02:12:00.988Z,84.75
2017-10-30T02:14:28.451Z,84.59
2017-10-30T02:16:55.923Z,84.50
2017-10-30T02:19:23.390Z,84.79
2017-10-30T02:21:50.826Z,85.64
2017-10-30T02:24:18.371Z,85.64
2017-10-30T02:26:45.837Z,85.54
2017-10-30T02:29:13.406Z,86.22
2017-10-30T02:31:40.873Z,85.81
2017-10-30T02:34:08.402Z,85.31
2017-10-30T02:36:35.862Z,85.24
2017-10-30T02:39:03.311Z,85.10
2017-10-30T02:41:30.762Z,85.35
2017-10-30T02:43:58.196Z,85.27
2017-10-30T02:46:25.650Z,85.37
2017-10-30T02:48:53.104Z,84.39
2017-10-30T02:51:20.564Z,84.75
2017-10-30T02:53:48.012Z,84.84
2017-10-30T02:56:15.490Z,85.17
2017-10-30T02:58:42.934Z,85.68
2017-10-30T03:01:10.417Z,86.23
2017-10-30T03:03:37.850Z,85.37
2017-10-30T03:06:05.348Z,85.31
2017-10-30T03:08:32.816Z,85.38
2017-10-30T03:11:00.352Z,85.36
2017-10-30T03:13:27.862Z,85.48
2017-10-30T03:15:55.311Z,85.57
2017-10-30T03:18:22.822Z,84.98
2017-10-30T03:20:50.637Z,85.50
2017-10-30T03:23:18.094Z,85.43
2017-10-30T03:25:45.589Z,85.11
2017-10-30T03:28:13.041Z,85.05
2017-10-30T03:30:40.483Z,86.94
2017-10-30T03:33:07.981Z,86.04
2017-10-30T03:35:35.443Z,85.83
2017-10-30T03:38:02.918Z,85.67
2017-10-30T03:40:30.447Z,86.58
2017-10-30T03:42:57.898Z,86.31
2017-10-30T03:45:25.357Z,86.35
2017-10-30T03:47:52.837Z,85.68
2017-10-30T03:50:20.322Z,86.06
2017-10-30T03:52:47.829Z,86.16
2017-10-30T03:55:15.261Z,85.89
2017-10-30T03:57:42.719Z,85.90
2017-10-30T04:00:10.194Z,85.98
2017-10-30T04:02:37.630Z,85.74
2017-10-30T04:05:05.090Z,85.78
2017-10-30T04:07:32.546Z,85.54
2017-10-30T04:09:59.998Z,86.26
2017-10-30T04:12:27.442Z,86.41
2017-10-30T04:14:54.893Z,85.60
2017-10-30T04:17:22.352Z,86.18
2017-10-30T04:19:49.831Z,85.68
2017-10-30T04:22:17.272Z,85.73
2017-10-30T04:24:44.783Z,86.20
2017-10-30T04:27:12.214Z,86.01
2017-10-30T04:29:39.918Z,86.34
2017-10-30T04:32:07.359Z,86.33
2017-10-30T04:34:34.870Z,88.28
2017-10-30T04:37:02.305Z,87.50
2017-10-30T04:39:29.779Z,86.80
2017-10-30T04:41:57.262Z,86.79
2017-10-30T04:44:24.709Z,86.94
2017-10-30T04:46:52.158Z,86.72
2017-10-30T04:49:19.634Z,86.63
2017-10-30T04:51:47.086Z,86.99
2017-10-30T04:54:14.582Z,86.45
2017-10-30T04:56:42.046Z,86.79
2017-10-30T04:59:09.576Z,87.10
2017-10-30T05:01:37.064Z,86.85
2017-10-30T05:04:04.536Z,87.03
2017-10-30T05:06:32.011Z,86.81
2017-10-30T05:08:59.443Z,86.85
2017-10-30T05:11:26.900Z,87.11
2017-10-30T05:13:54.363Z,86.87
2017-10-30T05:16:21.876Z,86.57
2017-10-30T05:18:49.315Z,86.12
2017-10-30T05:21:16.789Z,85.96
2017-10-30T05:23:44.222Z,86.01
2017-10-30T05:26:11.657Z,85.94
2017-10-30T05:28:39.120Z,86.53
2017-10-30T05:31:06.558Z,86.17
2017-10-30T05:33:34.057Z,85.87
2017-10-30T05:36:01.514Z,85.92
2017-10-30T05:38:28.992Z,86.34
2017-10-30T05:40:56.449Z,86.66
2017-10-30T05:43:23.924Z,86.92
2017-10-30T05:45:51.370Z,86.84
2017-10-30T05:48:18.849Z,86.93
2017-10-30T05:50:46.321Z,86.75
2017-10-30T05:53:13.779Z,86.33
2017-10-30T05:55:41.244Z,85.63
2017-10-30T05:58:08.698Z,85.59
2017-10-30T06:00:36.221Z,87.22
2017-10-30T06:03:03.770Z,87.23
2017-10-30T06:05:31.204Z,88.21
2017-10-30T06:07:58.642Z,88.03
2017-10-30T06:10:26.178Z,88.09
2017-10-30T06:12:53.642Z,88.03
2017-10-30T06:15:21.101Z,87.67
2017-10-30T06:17:48.552Z,88.09
2017-10-30T06:20:16.014Z,88.23
2017-10-30T06:22:43.470Z,88.72
2017-10-30T06:25:10.948Z,88.69
2017-10-30T06:27:38.407Z,88.51
2017-10-30T06:30:05.876Z,88.39
2017-10-30T06:32:33.317Z,88.38
2017-10-30T06:35:00.841Z,87.83
2017-10-30T06:37:28.269Z,87.95
2017-10-30T06:39:55.781Z,87.85
2017-10-30T06:42:23.235Z,87.60
2017-10-30T06:44:50.890Z,88.12
2017-10-30T06:47:18.342Z,87.79
2017-10-30T06:49:45.835Z,87.81
2017-10-30T06:52:13.306Z,89.24
2017-10-30T06:54:40.744Z,89.26
2017-10-30T06:57:08.213Z,88.32
2017-10-30T06:59:35.666Z,87.97
2017-10-30T07:02:03.123Z,87.31
2017-10-30T07:04:30.565Z,87.16
2017-10-30T07:06:58.023Z,87.29
2017-10-30T07:09:25.461Z,87.08
2017-10-30T07:11:52.946Z,86.94
2017-10-30T07:14:20.374Z,86.82
2017-10-30T07:16:47.825Z,87.24
2017-10-30T07:19:15.313Z,87.08
2017-10-30T07:21:42.765Z,87.24
2017-10-30T07:24:10.266Z,86.20
2017-10-30T07:26:37.788Z,85.58
2017-10-30T07:29:05.261Z,85.59
2017-10-30T07:31:32.706Z,85.66
2017-10-30T07:34:00.167Z,85.07
2017-10-30T07:36:27.708Z,84.75
2017-10-30T07:38:55.168Z,85.19
2017-10-30T07:41:22.769Z,84.80
2017-10-30T07:43:50.241Z,84.45
2017-10-30T07:46:17.692Z,83.45
2017-10-30T07:48:45.190Z,85.03
2017-10-30T07:51:12.638Z,84.74
2017-10-30T07:53:40.113Z,84.72
2017-10-30T07:56:07.600Z,83.91
2017-10-30T07:58:35.052Z,82.60
2017-10-30T08:01:02.525Z,81.59
2017-10-30T08:03:29.953Z,81.05
2017-10-30T08:05:57.414Z,80.45
2017-10-30T08:08:24.945Z,80.00
2017-10-30T08:10:52.414Z,78.91
2017-10-30T08:13:19.863Z,78.03
2017-10-30T08:15:47.430Z,76.36
2017-10-30T08:18:14.882Z,76.55
2017-10-30T08:20:42.431Z,75.71
2017-10-30T08:23:09.874Z,75.95
2017-10-30T08:25:37.334Z,76.39
2017-10-30T08:28:04.771Z,75.63
2017-10-30T08:30:32.250Z,74.77
2017-10-30T08:32:59.692Z,75.35
2017-10-30T08:35:27.200Z,75.18
2017-10-30T08:37:54.637Z,75.15
2017-10-30T08:40:22.106Z,74.49
2017-10-30T08:42:49.537Z,73.75
2017-10-30T08:45:16.972Z,73.38
2017-10-30T08:47:44.461Z,73.34
2017-10-30T08:50:11.901Z,73.76
2017-10-30T08:52:39.416Z,72.75
2017-10-30T08:55:06.851Z,72.29
2017-10-30T08:57:34.305Z,71.58
2017-10-30T09:00:01.856Z,71.69
2017-10-30T09:02:29.314Z,71.29
2017-10-30T09:04:56.769Z,69.89
2017-10-30T09:07:24.243Z,70.63
2017-10-30T09:09:51.770Z,71.36
2017-10-30T09:12:19.243Z,70.37
2017-10-30T09:14:46.688Z,70.07
2017-10-30T09:17:14.254Z,69.66
2017-10-30T09:19:41.823Z,70.13
2017-10-30T09:22:09.282Z,70.11
2017-10-30T09:24:36.757Z,69.64
2017-10-30T09:27:04.228Z,69.92
2017-10-30T09:29:31.682Z,69.95
2017-10-30T09:31:59.122Z,70.05
2017-10-30T09:34:26.582Z,69.34
2017-10-30T09:36:54.109Z,68.43
2017-10-30T09:39:21.570Z,68.08
2017-10-30T09:41:49.036Z,68.76
2017-10-30T09:44:16.503Z,68.11
2017-10-30T09:46:43.945Z,67.63
2017-10-30T09:49:11.402Z,67.72
2017-10-30T09:51:38.931Z,67.32
2017-10-30T09:54:06.496Z,66.82
2017-10-30T09:56:33.935Z,66.99
2017-10-30T09:59:01.378Z,66.28
2017-10-30T10:01:28.882Z,66.46
2017-10-30T10:03:56.330Z,66.48
2017-10-30T10:06:23.862Z,67.24
2017-10-30T10:08:51.315Z,66.16
2017-10-30T10:11:18.828Z,66.50
2017-10-30T10:13:46.266Z,66.07
2017-10-30T10:16:13.733Z,65.33
2017-10-30T10:18:41.172Z,65.04
2017-10-30T10:21:08.666Z,64.75
2017-10-30T10:23:36.198Z,65.32
2017-10-30T10:26:03.661Z,66.33
2017-10-30T10:28:31.197Z,65.87
2017-10-30T10:30:58.657Z,65.81
2017-10-30T10:33:26.211Z,64.73
2017-10-30T10:35:53.646Z,64.15
2017-10-30T10:38:21.105Z,65.13
2017-10-30T10:40:48.547Z,65.99
2017-10-30T10:43:16.006Z,64.71
2017-10-30T10:45:43.442Z,63.58
2017-10-30T10:48:10.914Z,62.58
2017-10-30T10:50:38.366Z,63.08
2017-10-30T10:53:05.851Z,63.29
2017-10-30T10:55:33.325Z,62.20
2017-10-30T10:58:00.794Z,62.73
2017-10-30T11:00:28.240Z,62.64
2017-10-30T11:02:55.715Z,62.25
2017-10-30T11:05:23.158Z,62.48
2017-10-30T11:07:50.709Z,62.35
2017-10-30T11:10:18.149Z,61.65
2017-10-30T11:12:45.611Z,61.59
2017-10-30T11:15:13.067Z,61.41
2017-10-30T11:17:40.511Z,61.73
2017-10-30T11:20:07.980Z,63.38
2017-10-30T11:22:35.463Z,63.01
2017-10-30T11:25:03.004Z,61.51
2017-10-30T11:27:30.450Z,62.41
2017-10-30T11:29:57.912Z,61.95
2017-10-30T11:32:25.396Z,61.48
2017-10-30T11:34:52.945Z,60.97
2017-10-30T11:37:20.482Z,61.50
2017-10-30T11:39:47.981Z,61.44
2017-10-30T11:42:15.417Z,60.29
2017-10-30T11:44:42.918Z,61.30
2017-10-30T11:47:10.371Z,60.15
2017-10-30T11:49:37.830Z,59.65
2017-10-30T11:52:05.284Z,58.84
2017-10-30T11:54:32.763Z,59.08
2017-10-30T11:57:00.205Z,59.88
2017-10-30T11:59:27.701Z,60.80
2017-10-30T12:01:55.156Z,57.96
2017-10-30T12:04:22.618Z,57.73
2017-10-30T12:06:50.072Z,57.23
2017-10-30T12:09:17.530Z,56.88
2017-10-30T12:11:44.987Z,57.10
2017-10-30T12:14:12.440Z,57.46
2017-10-30T12:16:39.968Z,57.42
2017-10-30T12:19:07.425Z,58.40
2017-10-30T12:21:34.882Z,58.75
2017-10-30T12:24:02.322Z,58.87
2017-10-30T12:26:29.792Z,59.25
2017-10-30T12:28:57.282Z,58.06
2017-10-30T12:31:24.742Z,58.60
2017-10-30T12:33:52.301Z,58.02
2017-10-30T12:36:19.785Z,56.54
2017-10-30T12:38:47.301Z,58.39
2017-10-30T12:41:14.767Z,58.75
2017-10-30T12:43:42.384Z,60.09
2017-10-30T12:46:09.911Z,60.17
2017-10-30T12:48:37.342Z,60.90
2017-10-30T12:51:04.815Z,60.36
2017-10-30T12:53:32.259Z,60.46
2017-10-30T12:55:59.747Z,60.83
2017-10-30T12:58:27.204Z,61.38
2017-10-30T13:00:54.662Z,61.34
2017-10-30T13:03:22.137Z,61.32
2017-10-30T13:05:49.593Z,62.13
2017-10-30T13:08:17.060Z,62.32
2017-10-30T13:10:44.525Z,61.24
2017-10-30T13:13:12.008Z,61.58
2017-10-30T13:15:39.458Z,60.98
2017-10-30T13:18:06.919Z,61.14
2017-10-30T13:20:34.391Z,60.67
2017-10-30T13:23:01.851Z,61.80
2017-10-30T13:25:29.397Z,61.58
2017-10-30T13:27:56.879Z,61.95
2017-10-30T13:30:24.331Z,62.39
2017-10-30T13:32:51.806Z,62.06
2017-10-30T13:35:19.240Z,61.71
2017-10-30T13:37:46.682Z,61.23
2017-10-30T13:40:14.163Z,61.61
2017-10-30T13:42:41.612Z,61.46
2017-10-30T13:45:09.081Z,61.46
2017-10-30T13:47:36.530Z,61.53
2017-10-30T13:50:04.000Z,61.73
2017-10-30T13:52:31.439Z,61.41
2017-10-30T13:54:58.901Z,60.18
2017-10-30T13:57:26.364Z,60.69
2017-10-30T13:59:53.837Z,60.91
2017-10-30T14:02:21.273Z,60.26
2017-10-30T14:04:48.737Z,60.43
2017-10-30T14:07:16.189Z,60.33
2017-10-30T14:09:43.685Z,60.53
2017-10-30T14:12:11.137Z,61.41
2017-10-30T14:14:38.583Z,61.52
2017-10-30T14:17:06.062Z,62.08
2017-10-30T14:19:33.520Z,61.58
2017-10-30T14:22:01.114Z,59.70
2017-10-30T14:24:28.550Z,60.16
2017-10-30T14:26:56.002Z,59.74
2017-10-30T14:29:23.446Z,60.46
2017-10-30T14:31:50.909Z,60.59
2017-10-30T14:34:18.393Z,61.36
2017-10-30T14:36:45.871Z,61.40
2017-10-30T14:39:13.385Z,61.58
2017-10-30T14:41:40.864Z,61.13
2017-10-30T14:44:08.314Z,60.66
2017-10-30T14:46:35.788Z,60.35
2017-10-30T14:49:03.314Z,59.76
2017-10-30T14:51:30.766Z,58.95
2017-10-30T14:53:58.228Z,58.89
2017-10-30T14:56:25.758Z,58.61
2017-10-30T14:58:53.228Z,58.86
2017-10-30T15:01:20.665Z,58.55
2017-10-30T15:03:48.173Z,60.00
2017-10-30T15:06:15.643Z,59.65
2017-10-30T15:08:43.129Z,59.33
2017-10-30T15:11:10.590Z,58.96
2017-10-30T15:13:38.050Z,59.37
2017-10-30T15:16:05.554Z,59.43
2017-10-30T15:18:33.010Z,58.78
2017-10-30T15:21:00.461Z,58.81
2017-10-30T15:23:27.933Z,59.36
2017-10-30T15:25:55.480Z,60.44
2017-10-30T15:28:22.927Z,61.04
2017-10-30T15:30:50.394Z,59.85
2017-10-30T15:33:17.898Z,60.26
2017-10-30T15:35:46.003Z,61.31
2017-10-30T15:38:13.455Z,61.58
2017-10-30T15:40:40.933Z,61.20
2017-10-30T15:43:08.370Z,61.60
2017-10-30T15:45:35.860Z,61.08
2017-10-30T15:48:03.314Z,60.29
2017-10-30T15:50:30.781Z,61.16
2017-10-30T15:52:58.222Z,62.68
2017-10-30T15:55:25.726Z,61.90
2017-10-30T15:57:53.184Z,60.94
2017-10-30T16:00:20.663Z,62.23
2017-10-30T16:02:48.118Z,63.64
2017-10-30T16:05:15.554Z,62.03
2017-10-30T16:07:43.049Z,62.51
2017-10-30T16:10:10.513Z,62.64
2017-10-30T16:12:38.102Z,62.92
2017-10-30T16:15:05.671Z,63.36
2017-10-30T16:17:33.144Z,63.91
2017-10-30T16:20:00.590Z,65.26
2017-10-30T16:22:28.067Z,66.11
2017-10-30T16:24:55.678Z,66.41
2017-10-30T16:27:23.142Z,66.38
2017-10-30T16:29:50.569Z,67.31
2017-10-30T16:32:18.043Z,67.20
2017-10-30T16:34:45.486Z,66.31
2017-10-30T16:37:12.913Z,66.50
2017-10-30T16:39:40.372Z,66.99
2017-10-30T16:42:07.809Z,67.67
2017-10-30T16:44:35.275Z,68.99
2017-10-30T16:47:02.732Z,70.63
2017-10-30T16:49:30.230Z,71.16
2017-10-30T16:51:57.671Z,72.15
2017-10-30T16:54:25.122Z,72.29
2017-10-30T16:56:52.551Z,73.84
2017-10-30T16:59:20.013Z,74.17
2017-10-30T17:01:47.476Z,73.85
2017-10-30T17:04:14.935Z,74.21
2017-10-30T17:06:42.383Z,74.36
2017-10-30T17:09:09.839Z,74.33
2017-10-30T17:11:37.274Z,75.01
2017-10-30T17:14:04.753Z,75.60
2017-10-30T17:16:32.200Z,75.94
2017-10-30T17:18:59.670Z,76.09
2017-10-30T17:21:27.111Z,76.97
2017-10-30T17:23:54.556Z,76.66
2017-10-30T17:26:22.027Z,76.76
2017-10-30T17:28:49.504Z,76.69
2017-10-30T17:31:17.018Z,77.14
2017-10-30T17:33:44.468Z,77.38
2017-10-30T17:36:11.930Z,77.88
2017-10-30T17:38:39.371Z,78.15
2017-10-30T17:41:06.831Z,78.61
2017-10-30T17:43:34.362Z,78.53
2017-10-30T17:46:01.835Z,78.86
2017-10-30T17:48:29.274Z,78.75
2017-10-30T17:50:56.725Z,78.84
2017-10-30T17:53:24.190Z,78.94
2017-10-30T17:55:51.659Z,79.54
2017-10-30T17:58:19.094Z,79.01
2017-10-30T18:00:46.535Z,79.52
2017-10-30T18:03:14.009Z,79.57
2017-10-30T18:05:41.467Z,80.04
2017-10-30T18:08:08.930Z,78.97
2017-10-30T18:10:36.364Z,79.10
2017-10-30T18:13:03.830Z,80.12
2017-10-30T18:15:31.315Z,80.39
2017-10-30T18:17:58.866Z,80.61
2017-10-30T18:20:26.297Z,80.62
2017-10-30T18:22:53.761Z,80.95
2017-10-30T18:25:21.202Z,79.89
2017-10-30T18:27:48.667Z,79.99
2017-10-30T18:30:16.102Z,80.05
2017-10-30T18:32:43.584Z,81.30
2017-10-30T18:35:11.036Z,81.42
2017-10-30T18:37:38.488Z,81.11
2017-10-30T18:40:05.957Z,80.70
2017-10-30T18:42:33.391Z,80.88
2017-10-30T18:45:00.869Z,81.17
2017-10-30T18:47:28.320Z,81.25
2017-10-30T18:49:55.796Z,81.33
2017-10-30T18:52:23.238Z,80.81
2017-10-30T18:54:50.691Z,80.65
2017-10-30T18:57:18.119Z,81.62
2017-10-30T18:59:45.622Z,81.37
2017-10-30T19:02:13.072Z,82.07
2017-10-30T19:04:40.554Z,82.13
2017-10-30T19:07:08.086Z,81.66
2017-10-30T19:09:35.535Z,82.09
2017-10-30T19:12:02.994Z,82.18
2017-10-30T19:14:30.443Z,82.09
2017-10-30T19:16:57.904Z,82.63
2017-10-30T19:19:25.358Z,82.95
2017-10-30T19:21:52.810Z,82.59
2017-10-30T19:24:20.246Z,83.02
2017-10-30T19:26:47.712Z,83.37
2017-10-30T19:29:15.162Z,83.42
2017-10-30T19:31:42.623Z,83.54
2017-10-30T19:34:10.070Z,83.80
2017-10-30T19:36:37.526Z,83.03
2017-10-30T19:39:04.957Z,83.09
2017-10-30T19:41:32.420Z,83.35
2017-10-30T19:43:59.881Z,83.06
2017-10-30T19:46:27.345Z,83.62
2017-10-30T19:48:54.774Z,83.14
2017-10-30T19:51:22.229Z,81.51
2017-10-30T19:53:49.657Z,83.55
2017-10-30T19:56:17.119Z,83.47
2017-10-30T19:58:44.577Z,84.29
2017-10-30T20:01:12.011Z,84.60
2017-10-30T20:03:39.500Z,85.03
2017-10-30T20:09:11.705Z,84.04
2017-10-30T20:11:44.889Z,83.56
2017-10-30T20:14:12.363Z,82.95
2017-10-30T20:16:39.798Z,82.97
2017-10-30T20:19:07.259Z,82.53
2017-10-30T20:21:34.717Z,83.16
2017-10-30T20:24:02.193Z,83.18
2017-10-30T20:26:29.715Z,83.66
2017-10-30T20:28:57.179Z,83.37
2017-10-30T20:31:24.780Z,82.70
2017-10-30T20:33:52.239Z,82.78
2017-10-30T20:36:19.763Z,83.26
2017-10-30T20:38:47.255Z,84.79
2017-10-30T20:41:14.712Z,84.50
2017-10-30T20:43:42.174Z,84.13
2017-10-30T20:46:09.625Z,83.26
2017-10-30T20:48:37.107Z,84.08
2017-10-30T20:51:04.545Z,82.80
2017-10-30T20:53:32.003Z,83.64
2017-10-30T20:55:59.455Z,84.27
2017-10-30T20:58:26.909Z,84.34
2017-10-30T21:00:54.399Z,84.34
2017-10-30T21:03:21.839Z,84.23
2017-10-30T21:05:49.302Z,84.34
2017-10-30T21:08:16.743Z,83.80
2017-10-30T21:10:44.212Z,84.12
2017-10-30T21:13:11.651Z,83.88
2017-10-30T21:15:39.116Z,83.82
2017-10-30T21:18:06.564Z,84.32
2017-10-30T21:20:34.058Z,83.82
2017-10-30T21:23:01.493Z,84.32
2017-10-30T21:25:28.986Z,84.45
2017-10-30T21:27:56.469Z,84.57
2017-10-30T21:30:23.903Z,84.66
2017-10-30T21:32:51.397Z,83.74
2017-10-30T21:35:18.910Z,85.27
2017-10-30T21:37:46.358Z,83.40
2017-10-30T21:40:13.791Z,84.04
2017-10-30T21:42:41.251Z,84.50
2017-10-30T21:45:08.681Z,84.01
2017-10-30T21:47:36.145Z,84.67
2017-10-30T21:50:03.582Z,84.63
2017-10-30T21:52:31.041Z,84.42
2017-10-30T21:54:58.492Z,84.16
2017-10-30T21:57:26.073Z,84.28
2017-10-30T21:59:53.522Z,84.42
2017-10-30T22:02:20.954Z,84.34
2017-10-30T22:04:48.427Z,84.21
2017-10-30T22:07:15.866Z,83.86
2017-10-30T22:09:43.330Z,82.89
2017-10-30T22:12:10.761Z,83.64
2017-10-30T22:14:38.301Z,84.22
2017-10-30T22:17:05.746Z,84.29
2017-10-30T22:19:33.197Z,84.21
2017-10-30T22:22:00.688Z,84.81
2017-10-30T22:24:28.153Z,84.23
2017-10-30T22:26:55.586Z,84.64
2017-10-30T22:29:23.105Z,84.77
2017-10-30T22:31:50.555Z,83.77
2017-10-30T22:34:18.024Z,83.72
2017-10-30T22:36:45.468Z,84.60
2017-10-30T22:39:12.940Z,84.93
2017-10-30T22:41:40.380Z,84.39
2017-10-30T22:44:07.850Z,84.44
2017-10-30T22:46:35.294Z,84.93
2017-10-30T22:49:02.797Z,84.87
2017-10-30T22:51:30.280Z,85.07
2017-10-30T22:53:57.738Z,84.99
2017-10-30T22:56:25.233Z,84.72
2017-10-30T22:58:52.720Z,85.51
2017-10-30T23:01:20.202Z,84.92
2017-10-30T23:03:47.735Z,85.35
2017-10-30T23:06:15.191Z,84.98
2017-10-30T23:08:42.654Z,85.16
2017-10-30T23:11:10.165Z,85.69
2017-10-30T23:13:37.612Z,85.05
2017-10-30T23:16:05.137Z,84.97
2017-10-30T23:18:32.570Z,84.98
2017-10-30T23:21:00.047Z,84.41
2017-10-30T23:23:27.590Z,84.18
2017-10-30T23:25:55.027Z,84.21
2017-10-30T23:28:22.482Z,84.56
2017-10-30T23:30:49.929Z,83.93
2017-10-30T23:33:17.418Z,84.59
2017-10-30T23:35:44.852Z,84.34
2017-10-30T23:38:12.314Z,84.31
2017-10-30T23:40:39.749Z,84.62
2017-10-30T23:43:07.206Z,84.81
2017-10-30T23:45:34.648Z,85.00
2017-10-30T23:48:02.101Z,84.64
2017-10-30T23:50:29.533Z,84.40
2017-10-30T23:52:57.001Z,84.11
2017-10-30T23:55:24.433Z,84.49
2017-10-30T23:57:51.906Z,84.63
